createdAt,value
2023-04-21T00:00:49.061Z,14.33
2023-04-21T00:03:19.712Z,15.37
2023-04-21T00:05:49.048Z,15.60
2023-04-21T00:08:19.075Z,16.83
2023-04-21T00:10:48.141Z,13.87
2023-04-21T00:13:16.945Z,17.53
2023-04-21T00:15:45.714Z,14.47
2023-04-21T00:18:16.219Z,15.83
2023-04-21T00:20:45.191Z,14.57
2023-04-21T00:23:13.895Z,14.33
2023-04-21T00:25:49.937Z,17.00
2023-04-21T00:28:26.715Z,15.20
2023-04-21T00:30:57.165Z,16.77
2023-04-21T00:33:25.914Z,18.80
2023-04-21T00:35:54.719Z,14.27
2023-04-21T00:38:23.571Z,14.20
2023-04-21T00:40:52.338Z,12.93
2023-04-21T00:43:21.057Z,13.37
2023-04-21T00:45:49.837Z,11.65
2023-04-21T00:48:18.754Z,14.83
2023-04-21T00:50:47.748Z,14.67
2023-04-21T00:53:17.420Z,16.53
2023-04-21T00:55:46.812Z,16.30
2023-04-21T00:58:15.594Z,14.03
2023-04-21T01:00:44.721Z,20.87
2023-04-21T01:03:13.832Z,17.73
2023-04-21T01:05:42.762Z,16.00
2023-04-21T01:08:13.280Z,22.27
2023-04-21T01:10:42.269Z,17.33
2023-04-21T01:13:10.977Z,18.87
2023-04-21T01:15:39.725Z,20.43
2023-04-21T01:18:08.468Z,22.30
2023-04-21T01:20:37.231Z,19.40
2023-04-21T01:23:05.954Z,18.40
2023-04-21T01:25:34.916Z,18.53
2023-04-21T01:28:04.218Z,17.27
2023-04-21T01:30:33.073Z,22.10
2023-04-21T01:33:01.932Z,21.07
2023-04-21T01:35:32.331Z,21.90
2023-04-21T01:38:01.596Z,24.23
2023-04-21T01:40:30.308Z,22.27
2023-04-21T01:42:59.618Z,17.53
2023-04-21T01:45:28.378Z,24.07
2023-04-21T01:47:57.103Z,18.03
2023-04-21T01:50:26.144Z,16.60
2023-04-21T01:52:54.981Z,22.77
2023-04-21T01:55:23.872Z,18.63
2023-04-21T01:57:52.546Z,19.40
2023-04-21T02:00:21.508Z,20.60
2023-04-21T02:02:50.378Z,22.33
2023-04-21T02:05:19.257Z,20.00
2023-04-21T02:07:47.935Z,18.07
2023-04-21T02:10:16.700Z,20.80
2023-04-21T02:12:45.463Z,16.90
2023-04-21T02:15:14.274Z,21.23
2023-04-21T02:17:45.112Z,23.90
2023-04-21T02:20:14.025Z,22.07
2023-04-21T02:22:42.750Z,25.63
2023-04-21T02:25:11.536Z,25.63
2023-04-21T02:27:40.405Z,28.00
2023-04-21T02:30:10.268Z,23.57
2023-04-21T02:32:39.393Z,25.43
2023-04-21T02:35:08.330Z,19.97
2023-04-21T02:37:37.051Z,23.10
2023-04-21T02:40:06.715Z,23.83
2023-04-21T02:42:35.385Z,25.83
2023-04-21T02:45:04.121Z,19.97
2023-04-21T02:47:32.865Z,26.23
2023-04-21T02:50:01.794Z,18.77
2023-04-21T02:52:30.635Z,22.67
2023-04-21T02:54:59.266Z,18.93
2023-04-21T02:57:28.005Z,17.70
2023-04-21T02:59:56.707Z,29.50
2023-04-21T03:02:25.905Z,15.70
2023-04-21T03:04:54.866Z,19.87
2023-04-21T03:07:23.528Z,17.37
2023-04-21T03:09:52.303Z,15.17
2023-04-21T03:12:23.594Z,16.07
2023-04-21T03:21:47.870Z,17.00
2023-04-21T03:24:16.613Z,22.73
2023-04-21T03:26:45.372Z,22.47
2023-04-21T03:29:14.020Z,18.50
2023-04-21T03:31:42.753Z,19.27
2023-04-21T03:34:11.545Z,19.27
2023-04-21T03:36:40.360Z,21.57
2023-04-21T03:39:19.667Z,23.13
2023-04-21T03:41:41.074Z,19.53
2023-04-21T03:44:09.911Z,23.47
2023-04-21T03:46:38.564Z,18.47
2023-04-21T03:49:07.381Z,16.57
2023-04-21T03:51:36.144Z,17.90
2023-04-21T03:54:05.205Z,19.27
2023-04-21T03:56:33.951Z,19.93
2023-04-21T03:59:02.643Z,18.73
2023-04-21T04:01:31.324Z,19.17
2023-04-21T04:04:02.952Z,16.57
2023-04-21T04:06:33.249Z,18.23
2023-04-21T04:09:03.774Z,26.63
2023-04-21T04:11:33.273Z,15.68
2023-04-21T04:14:02.896Z,18.43
2023-04-21T04:16:33.238Z,17.93
2023-04-21T04:19:02.279Z,18.27
2023-04-21T04:21:34.971Z,15.38
2023-04-21T04:24:06.845Z,17.87
2023-04-21T04:26:41.424Z,18.33
2023-04-21T04:29:14.100Z,27.83
2023-04-21T04:31:45.019Z,19.50
2023-04-21T04:34:13.616Z,20.00
2023-04-21T04:36:43.907Z,14.60
2023-04-21T04:39:12.671Z,17.15
2023-04-21T04:41:44.238Z,15.13
2023-04-21T04:44:12.905Z,17.73
2023-04-21T04:46:41.706Z,14.80
2023-04-21T04:49:10.531Z,12.23
2023-04-21T04:51:39.141Z,17.80
2023-04-21T04:54:07.899Z,17.35
2023-04-21T04:56:37.459Z,13.58
2023-04-21T04:59:07.617Z,17.65
2023-04-21T05:08:19.671Z,27.45
2023-04-21T05:10:49.796Z,25.05
2023-04-21T05:13:22.604Z,27.40
2023-04-21T05:16:14.857Z,33.13
2023-04-21T05:18:49.609Z,29.30
2023-04-21T05:21:33.045Z,33.08
2023-04-21T05:24:06.282Z,26.55
2023-04-21T05:26:37.389Z,25.08
2023-04-21T05:29:09.156Z,28.70
2023-04-21T05:31:39.521Z,21.57
2023-04-21T05:34:09.891Z,23.55
2023-04-21T05:36:44.426Z,23.98
2023-04-21T05:39:20.398Z,15.80
2023-04-21T05:41:49.314Z,14.15
2023-04-21T05:44:19.775Z,15.53
2023-04-21T05:46:50.360Z,15.45
2023-04-21T05:49:24.381Z,23.22
2023-04-21T05:51:54.790Z,23.00
2023-04-21T05:54:28.006Z,16.25
2023-04-21T05:57:07.388Z,15.65
2023-04-21T05:59:43.396Z,15.60
2023-04-21T06:02:19.868Z,14.15
2023-04-21T06:08:18.826Z,19.40
2023-04-21T06:10:47.651Z,11.33
2023-04-21T06:13:19.375Z,15.72
2023-04-21T06:15:57.025Z,20.30
2023-04-21T06:18:34.537Z,11.63
2023-04-21T06:21:04.826Z,15.03
2023-04-21T06:23:39.027Z,17.42
2023-04-21T06:26:12.003Z,13.08
2023-04-21T06:28:40.999Z,14.80
2023-04-21T06:31:20.024Z,15.03
2023-04-21T06:33:55.050Z,12.60
2023-04-21T06:36:26.760Z,12.55
2023-04-21T06:38:58.864Z,14.55
2023-04-21T06:41:29.294Z,12.30
2023-04-21T06:44:00.434Z,18.07
2023-04-21T06:46:39.629Z,15.00
2023-04-21T06:49:13.277Z,19.50
2023-04-21T06:51:44.971Z,12.80
2023-04-21T06:54:17.707Z,18.00
2023-04-21T06:56:53.147Z,12.50
2023-04-21T06:59:38.327Z,14.70
2023-04-21T07:02:10.064Z,14.13
2023-04-21T07:04:40.765Z,15.40
2023-04-21T07:07:15.599Z,12.95
2023-04-21T07:09:51.307Z,13.88
2023-04-21T07:12:46.951Z,19.48
2023-04-21T07:15:20.931Z,11.97
2023-04-21T07:17:52.876Z,12.90
2023-04-21T07:20:23.992Z,13.93
2023-04-21T07:22:57.303Z,13.53
2023-04-21T07:25:27.729Z,13.58
2023-04-21T07:28:00.386Z,13.85
2023-04-21T07:30:30.951Z,13.03
2023-04-21T07:33:02.881Z,11.70
2023-04-21T07:35:33.299Z,10.93
2023-04-21T07:38:03.731Z,12.00
2023-04-21T07:40:36.792Z,15.90
2023-04-21T07:45:47.197Z,16.97
2023-04-21T07:48:16.066Z,13.72
2023-04-21T07:50:45.688Z,9.90
2023-04-21T07:53:22.787Z,13.08
2023-04-21T08:02:12.398Z,11.63
2023-04-21T08:04:41.283Z,11.12
2023-04-21T08:07:10.522Z,11.63
2023-04-21T08:09:39.271Z,9.55
2023-04-21T08:12:08.045Z,12.25
2023-04-21T08:14:36.700Z,10.53
2023-04-21T08:17:05.437Z,9.00
2023-04-21T08:19:34.436Z,12.15
2023-04-21T08:22:03.110Z,10.18
2023-04-21T08:24:34.618Z,11.33
2023-04-21T08:27:03.445Z,12.70
2023-04-21T08:29:32.179Z,10.65
2023-04-21T08:32:00.982Z,6.70
2023-04-21T08:37:24.532Z,7.75
2023-04-21T08:39:54.430Z,9.18
2023-04-21T08:42:23.296Z,14.53
2023-04-21T08:44:51.980Z,12.93
2023-04-21T08:47:23.175Z,7.37
2023-04-21T08:49:54.334Z,7.80
2023-04-21T08:52:23.447Z,13.75
2023-04-21T08:54:53.282Z,10.13
2023-04-21T08:57:22.133Z,5.55
2023-04-21T08:59:50.982Z,10.30
2023-04-21T09:02:21.315Z,10.55
2023-04-21T09:04:52.449Z,17.05
2023-04-21T09:07:43.707Z,9.03
2023-04-21T09:10:18.878Z,7.33
2023-04-21T09:12:50.045Z,11.95
2023-04-21T09:15:24.031Z,13.40
2023-04-21T09:17:57.258Z,9.13
2023-04-21T09:20:29.966Z,13.85
2023-04-21T09:23:06.646Z,10.15
2023-04-21T09:25:35.656Z,9.25
2023-04-21T09:28:04.913Z,10.23
2023-04-21T09:30:36.949Z,17.70
2023-04-21T09:33:16.675Z,7.53
2023-04-21T09:41:48.260Z,6.70
2023-04-21T09:44:18.510Z,10.35
2023-04-21T09:46:50.832Z,7.08
2023-04-21T09:49:21.462Z,11.08
2023-04-21T09:52:17.056Z,9.75
2023-04-21T09:56:57.792Z,9.68
2023-04-21T09:59:31.875Z,5.17
2023-04-21T10:02:02.410Z,12.45
2023-04-21T10:04:37.222Z,11.90
2023-04-21T10:07:07.014Z,7.33
2023-04-21T10:09:44.931Z,7.28
2023-04-21T10:12:16.388Z,10.43
2023-04-21T10:14:45.226Z,14.93
2023-04-21T10:17:17.748Z,8.65
2023-04-21T10:19:57.716Z,11.43
2023-04-21T10:22:31.646Z,8.90
2023-04-21T10:25:03.787Z,11.08
2023-04-21T10:27:35.656Z,9.28
2023-04-21T10:30:22.823Z,7.08
2023-04-21T10:33:05.995Z,11.65
2023-04-21T10:36:01.257Z,9.13
2023-04-21T10:38:44.056Z,9.23
2023-04-21T10:41:29.588Z,9.58
2023-04-21T10:44:14.916Z,12.30
2023-04-21T10:46:48.797Z,10.48
2023-04-21T10:49:31.524Z,8.40
2023-04-21T10:52:04.818Z,11.57
2023-04-21T10:55:00.325Z,10.40
2023-04-21T10:57:32.091Z,9.00
2023-04-21T11:00:01.100Z,7.30
2023-04-21T11:02:31.633Z,7.97
2023-04-21T11:05:01.906Z,5.60
2023-04-21T11:07:32.351Z,6.80
2023-04-21T11:10:11.540Z,11.35
2023-04-21T11:12:41.800Z,9.98
2023-04-21T11:22:01.573Z,17.80
2023-04-21T11:48:17.235Z,7.60
2023-04-21T11:57:29.079Z,5.70
2023-04-21T12:00:12.032Z,5.87
2023-04-21T12:02:41.470Z,10.68
2023-04-21T12:05:12.901Z,5.50
2023-04-21T12:07:48.970Z,6.10
2023-04-21T12:10:22.048Z,2.87
2023-04-21T12:13:04.406Z,3.52
2023-04-21T12:15:33.096Z,5.28
2023-04-21T12:18:10.710Z,3.60
2023-04-21T12:20:44.146Z,5.55
2023-04-21T12:23:13.022Z,5.95
2023-04-21T12:25:45.482Z,5.37
2023-04-21T12:28:18.242Z,6.35
2023-04-21T12:30:48.307Z,11.60
2023-04-21T12:33:18.300Z,4.83
2023-04-21T12:35:47.233Z,7.97
2023-04-21T12:38:16.542Z,7.17
2023-04-21T12:40:45.290Z,7.47
2023-04-21T12:43:13.970Z,7.05
2023-04-21T12:45:42.781Z,8.55
2023-04-21T12:48:12.442Z,11.93
2023-04-21T12:50:41.360Z,6.28
2023-04-21T12:53:10.204Z,11.90
2023-04-21T12:55:39.168Z,7.60
2023-04-21T12:58:08.664Z,14.60
2023-04-21T13:00:37.672Z,14.80
2023-04-21T13:03:06.840Z,6.95
2023-04-21T13:05:35.898Z,6.45
2023-04-21T13:08:04.615Z,8.18
2023-04-21T13:10:33.356Z,9.33
2023-04-21T13:13:02.071Z,7.97
2023-04-21T13:15:30.808Z,6.47
2023-04-21T13:18:00.204Z,6.45
2023-04-21T13:20:28.924Z,12.18
2023-04-21T13:23:00.317Z,6.05
2023-04-21T13:25:29.055Z,4.58
2023-04-21T13:27:58.185Z,11.63
2023-04-21T13:30:26.946Z,7.10
2023-04-21T13:32:56.072Z,11.88
2023-04-21T13:35:24.898Z,7.55
2023-04-21T13:37:57.425Z,7.22
2023-04-21T13:40:26.140Z,6.17
2023-04-21T13:42:54.853Z,10.98
2023-04-21T13:45:24.454Z,7.72
2023-04-21T13:47:54.221Z,9.90
2023-04-21T13:50:23.356Z,8.78
2023-04-21T13:52:52.914Z,6.30
2023-04-21T13:55:23.771Z,11.40
2023-04-21T13:57:58.702Z,10.48
2023-04-21T14:00:27.764Z,12.53
2023-04-21T14:03:09.794Z,9.75
2023-04-21T14:05:39.361Z,8.03
2023-04-21T14:08:10.077Z,9.58
2023-04-21T14:10:38.985Z,14.25
2023-04-21T14:13:07.585Z,11.03
2023-04-21T14:15:39.227Z,8.65
2023-04-21T14:18:08.467Z,14.15
2023-04-21T14:20:38.767Z,9.03
2023-04-21T14:23:10.754Z,7.22
2023-04-21T14:25:39.620Z,12.63
2023-04-21T14:28:12.941Z,8.35
2023-04-21T14:30:43.478Z,12.70
2023-04-21T14:33:39.588Z,16.52
2023-04-21T14:35:42.878Z,9.83
2023-04-21T14:38:11.692Z,9.33
2023-04-21T14:40:40.506Z,11.28
2023-04-21T14:43:14.880Z,10.18
2023-04-21T14:45:43.786Z,10.35
2023-04-21T14:48:14.510Z,7.35
2023-04-21T14:50:43.405Z,10.85
2023-04-21T14:53:13.938Z,13.80
2023-04-21T14:55:50.376Z,14.00
2023-04-21T14:58:19.360Z,6.37
2023-04-21T15:00:48.205Z,7.05
2023-04-21T15:03:17.187Z,9.60
2023-04-21T15:05:46.236Z,7.95
2023-04-21T15:08:16.636Z,9.75
2023-04-21T15:10:49.137Z,9.75
2023-04-21T15:13:17.939Z,7.72
2023-04-21T15:15:46.967Z,7.42
2023-04-21T15:18:21.209Z,11.30
2023-04-21T15:20:50.184Z,12.28
2023-04-21T15:23:18.976Z,10.05
2023-04-21T15:25:48.136Z,11.48
2023-04-21T15:28:19.634Z,9.63
2023-04-21T15:30:50.058Z,7.72
2023-04-21T15:33:20.567Z,9.83
2023-04-21T15:36:02.258Z,5.47
2023-04-21T15:38:32.765Z,8.83
2023-04-21T15:41:01.815Z,8.75
2023-04-21T15:43:33.359Z,10.75
2023-04-21T15:46:02.121Z,7.67
2023-04-21T15:48:34.138Z,14.93
2023-04-21T15:51:05.322Z,10.20
2023-04-21T15:53:43.481Z,6.33
2023-04-21T15:56:18.309Z,4.87
2023-04-21T15:58:47.062Z,7.80
2023-04-21T16:01:17.648Z,6.70
2023-04-21T16:03:49.190Z,6.62
2023-04-21T16:06:27.393Z,7.03
2023-04-21T16:08:59.707Z,8.48
2023-04-21T16:11:31.456Z,8.83
2023-04-21T16:14:00.468Z,7.30
2023-04-21T16:16:29.383Z,6.62
2023-04-21T16:18:58.230Z,6.87
2023-04-21T16:21:27.983Z,4.97
2023-04-21T16:23:57.111Z,8.90
2023-04-21T16:26:28.667Z,14.00
2023-04-21T16:28:57.489Z,7.28
2023-04-21T16:31:26.411Z,6.42
2023-04-21T16:34:02.045Z,19.73
2023-04-21T16:36:32.562Z,5.87
2023-04-21T16:39:01.504Z,6.55
2023-04-21T16:41:30.748Z,5.80
2023-04-21T16:43:59.630Z,7.10
2023-04-21T16:46:32.644Z,6.60
2023-04-21T16:49:01.711Z,6.28
2023-04-21T16:51:31.311Z,7.72
2023-04-21T16:54:04.497Z,13.13
2023-04-21T16:56:33.262Z,7.87
2023-04-21T16:59:07.011Z,4.60
2023-04-21T17:01:37.022Z,4.47
2023-04-21T17:04:13.513Z,6.50
2023-04-21T17:06:42.484Z,7.08
2023-04-21T17:09:17.943Z,11.68
2023-04-21T17:11:51.820Z,8.93
2023-04-21T17:14:23.882Z,13.58
2023-04-21T17:16:54.654Z,15.45
2023-04-21T17:19:26.990Z,7.00
2023-04-21T17:21:55.951Z,9.15
2023-04-21T17:24:25.126Z,11.80
2023-04-21T17:26:53.920Z,10.45
2023-04-21T17:29:22.750Z,7.85
2023-04-21T17:31:51.557Z,11.90
2023-04-21T17:34:24.768Z,8.68
2023-04-21T17:36:55.334Z,10.78
2023-04-21T17:39:26.520Z,8.83
2023-04-21T17:42:03.265Z,10.03
2023-04-21T17:44:34.983Z,18.37
2023-04-21T17:47:10.353Z,14.05
2023-04-21T17:49:39.495Z,11.33
2023-04-21T17:52:08.353Z,9.25
2023-04-21T17:54:38.784Z,10.70
2023-04-21T18:01:27.425Z,12.07
2023-04-21T18:04:01.006Z,15.40
2023-04-21T18:06:29.390Z,21.50
2023-04-21T18:09:00.908Z,12.78
2023-04-21T18:11:32.499Z,15.03
2023-04-21T18:14:01.425Z,15.50
2023-04-21T18:16:30.414Z,17.87
2023-04-21T18:19:03.131Z,11.93
2023-04-21T18:21:39.290Z,18.95
2023-04-21T18:24:08.129Z,26.15
2023-04-21T18:26:37.082Z,20.92
2023-04-21T18:29:09.943Z,22.13
2023-04-21T18:31:46.329Z,23.85
2023-04-21T18:34:15.242Z,17.87
2023-04-21T18:36:45.651Z,26.42
2023-04-21T18:39:16.694Z,26.62
2023-04-21T18:41:47.048Z,21.50
2023-04-21T18:44:23.228Z,20.35
2023-04-21T18:46:52.192Z,18.32
2023-04-21T18:49:25.982Z,20.25
2023-04-21T18:51:57.343Z,25.80
2023-04-21T18:54:25.483Z,18.42
2023-04-21T18:56:57.922Z,16.12
2023-04-21T18:59:26.919Z,14.35
2023-04-21T19:01:57.914Z,15.43
2023-04-21T19:04:27.240Z,16.42
2023-04-21T19:06:57.821Z,14.45
2023-04-21T19:09:28.341Z,13.62
2023-04-21T19:11:57.500Z,16.12
2023-04-21T19:14:39.599Z,23.12
2023-04-21T19:17:00.733Z,16.40
2023-04-21T19:19:29.801Z,14.23
2023-04-21T19:22:03.844Z,12.07
2023-04-21T19:24:39.935Z,12.58
2023-04-21T19:27:09.261Z,18.17
2023-04-21T19:29:44.188Z,13.45
2023-04-21T19:32:19.960Z,21.62
2023-04-21T19:34:56.936Z,29.80
2023-04-21T19:37:28.527Z,11.90
2023-04-21T19:40:06.435Z,16.77
2023-04-21T19:42:35.238Z,20.97
2023-04-21T19:45:04.002Z,12.43
2023-04-21T19:47:34.455Z,14.07
2023-04-21T19:50:14.412Z,12.75
2023-04-21T19:52:42.650Z,12.30
2023-04-21T19:55:11.464Z,24.25
2023-04-21T19:57:40.147Z,13.50
2023-04-21T20:00:11.339Z,9.60
2023-04-21T20:02:40.735Z,14.10
2023-04-21T20:05:12.865Z,12.55
2023-04-21T20:07:45.100Z,11.90
2023-04-21T20:10:13.883Z,14.93
2023-04-21T20:12:42.542Z,8.70
2023-04-21T20:15:13.003Z,8.03
2023-04-21T20:17:42.083Z,10.65
2023-04-21T20:20:11.880Z,10.00
2023-04-21T20:22:40.717Z,12.63
2023-04-21T20:25:11.223Z,16.93
2023-04-21T20:27:43.025Z,15.05
2023-04-21T20:30:13.496Z,13.55
2023-04-21T20:32:42.194Z,14.60
2023-04-21T20:35:16.918Z,15.40
2023-04-21T20:37:45.943Z,13.70
2023-04-21T20:40:14.843Z,18.02
2023-04-21T20:46:12.709Z,18.82
2023-04-21T20:48:41.380Z,15.32
2023-04-21T20:51:10.120Z,16.93
2023-04-21T20:53:38.806Z,16.20
2023-04-21T20:56:07.609Z,14.18
2023-04-21T20:58:36.795Z,11.40
2023-04-21T21:01:05.836Z,8.60
2023-04-21T21:03:34.570Z,14.90
2023-04-21T21:06:03.556Z,14.57
2023-04-21T21:08:32.430Z,17.70
2023-04-21T21:11:01.163Z,12.47
2023-04-21T21:13:30.021Z,16.25
2023-04-21T21:15:58.669Z,15.63
2023-04-21T21:18:27.950Z,24.80
2023-04-21T21:21:02.632Z,15.53
2023-04-21T21:23:35.856Z,17.07
2023-04-21T21:26:04.732Z,22.05
2023-04-21T21:28:35.572Z,16.12
2023-04-21T21:31:04.099Z,22.97
2023-04-21T21:33:34.231Z,18.92
2023-04-21T21:36:02.963Z,17.25
2023-04-21T21:38:31.686Z,14.70
2023-04-21T21:41:03.252Z,13.85
2023-04-21T21:43:33.229Z,11.38
2023-04-21T21:46:01.999Z,14.90
2023-04-21T21:48:30.744Z,13.15
2023-04-21T21:50:59.401Z,16.73
2023-04-21T21:53:30.020Z,16.97
2023-04-21T21:55:58.808Z,12.87
2023-04-21T21:58:28.128Z,14.68
2023-04-21T22:00:56.917Z,19.90
2023-04-21T22:03:26.425Z,16.20
2023-04-21T22:06:02.859Z,11.67
2023-04-21T22:08:34.595Z,16.97
2023-04-21T22:11:07.508Z,14.03
2023-04-21T22:13:36.448Z,13.13
2023-04-21T22:16:05.969Z,22.10
2023-04-21T22:18:34.907Z,21.00
2023-04-21T22:21:04.289Z,27.60
2023-04-21T22:23:33.266Z,20.93
2023-04-21T22:26:02.153Z,27.27
2023-04-21T22:28:30.996Z,22.03
2023-04-21T22:30:59.807Z,17.87
2023-04-21T22:33:28.561Z,18.17
2023-04-21T22:35:59.426Z,22.07
2023-04-21T22:38:28.349Z,19.70
2023-04-21T22:40:57.248Z,20.93
2023-04-21T22:43:26.107Z,22.00
2023-04-21T22:45:56.099Z,19.10
2023-04-21T22:48:26.470Z,18.93
2023-04-21T22:50:55.725Z,21.97
2023-04-21T22:53:27.735Z,16.40
2023-04-21T22:55:56.497Z,17.17
2023-04-21T22:58:26.543Z,19.87
2023-04-21T23:00:55.420Z,17.87
2023-04-21T23:03:24.759Z,20.17
2023-04-21T23:05:54.969Z,19.73
2023-04-21T23:08:23.768Z,20.60
2023-04-21T23:10:52.995Z,19.73
2023-04-21T23:13:21.762Z,18.70
2023-04-21T23:15:50.588Z,17.83
2023-04-21T23:18:19.307Z,17.00
2023-04-21T23:20:51.218Z,18.77
2023-04-21T23:23:20.179Z,19.47
2023-04-21T23:25:48.791Z,18.67
2023-04-21T23:28:17.577Z,20.00
2023-04-21T23:30:46.347Z,19.70
2023-04-21T23:33:15.219Z,15.63
2023-04-21T23:35:44.168Z,15.57
2023-04-21T23:38:12.900Z,18.67
2023-04-21T23:40:44.602Z,19.30
2023-04-21T23:43:13.268Z,26.37
2023-04-21T23:45:42.044Z,18.77
2023-04-21T23:48:11.776Z,13.70
2023-04-21T23:50:42.056Z,21.07
2023-04-21T23:53:10.806Z,18.03
2023-04-21T23:55:39.651Z,18.90
2023-04-21T23:58:08.376Z,22.57
